Time;durP1;ratioP1;P1;durP2;ratioP2;P2;SDS_P1;SDS_P2;PMS_P1;PMS_P2;Temp;Humidity;BMP_temperature;BMP_pressure;BME280_temperature;BME280_humidity;BME280_pressure;Samples;Min_cycle;Max_cycle;Signal;HPM_P1;HPM_P2
2021/12/30 00:01:54;;;;;;;24.33;3.88;;;8.70;99.90;;;;;;4999498;28;20474;-67
2021/12/30 00:04:23;;;;;;;36.15;4.03;;;8.70;99.90;;;;;;5017011;28;20143;-68
2021/12/30 00:06:50;;;;;;;25.38;4.53;;;8.70;99.90;;;;;;5011436;28;20053;-68
2021/12/30 00:09:20;;;;;;;27.83;3.80;;;8.70;99.90;;;;;;5015958;28;20449;-68
2021/12/30 00:11:46;;;;;;;36.10;5.15;;;8.70;99.90;;;;;;5020004;28;20076;-68
2021/12/30 00:14:12;;;;;;;22.20;3.78;;;8.70;99.90;;;;;;5000612;28;20449;-68
2021/12/30 00:16:38;;;;;;;36.97;5.73;;;8.70;99.90;;;;;;5001231;28;20072;-67
2021/12/30 00:19:03;;;;;;;25.58;4.93;;;8.70;99.90;;;;;;5020922;28;20033;-67
2021/12/30 00:21:29;;;;;;;29.47;4.03;;;8.70;99.90;;;;;;4994421;28;20038;-67
2021/12/30 00:23:55;;;;;;;33.60;5.63;;;8.70;99.90;;;;;;5002368;28;20302;-67
2021/12/30 00:26:20;;;;;;;31.30;5.33;;;8.70;99.90;;;;;;5005159;28;20508;-67
2021/12/30 00:28:47;;;;;;;37.77;5.70;;;8.70;99.90;;;;;;4997480;28;20152;-67
2021/12/30 00:31:12;;;;;;;41.47;4.57;;;8.70;99.90;;;;;;5025070;28;20144;-68
2021/12/30 00:33:38;;;;;;;30.87;4.40;;;8.70;99.90;;;;;;5002193;28;20648;-68
2021/12/30 00:36:06;;;;;;;45.67;5.20;;;8.70;99.90;;;;;;5020955;28;20109;-67
2021/12/30 00:38:33;;;;;;;39.28;5.28;;;8.70;99.90;;;;;;5018526;28;20270;-67
2021/12/30 00:40:59;;;;;;;41.10;6.88;;;8.70;99.90;;;;;;5014627;28;20625;-67
2021/12/30 00:43:25;;;;;;;42.47;5.50;;;8.70;99.90;;;;;;5018108;28;20257;-67
2021/12/30 00:45:50;;;;;;;30.60;4.93;;;8.70;99.90;;;;;;5000879;28;20463;-67
2021/12/30 00:48:16;;;;;;;33.22;6.18;;;8.60;99.90;;;;;;5001483;28;20042;-67
2021/12/30 00:50:43;;;;;;;30.50;4.97;;;8.70;99.90;;;;;;5004906;28;20091;-67
2021/12/30 00:53:09;;;;;;;30.58;4.50;;;8.70;99.90;;;;;;4989197;28;20116;-67
2021/12/30 00:55:36;;;;;;;30.83;4.95;;;8.70;99.90;;;;;;5016145;28;20057;-68
2021/12/30 00:58:03;;;;;;;36.17;5.60;;;8.70;99.90;;;;;;4998587;28;20505;-67
2021/12/30 01:00:28;;;;;;;39.92;6.15;;;8.70;99.90;;;;;;5006022;28;20037;-68
2021/12/30 01:02:54;;;;;;;19.73;4.30;;;8.70;99.90;;;;;;5023697;28;20175;-66
2021/12/30 01:05:20;;;;;;;34.40;5.03;;;8.70;99.90;;;;;;5007228;28;20075;-67
2021/12/30 01:07:45;;;;;;;26.90;5.18;;;8.70;99.90;;;;;;5019370;28;20068;-67
2021/12/30 01:10:13;;;;;;;30.43;5.00;;;8.70;99.90;;;;;;5018519;28;20045;-67
2021/12/30 01:12:39;;;;;;;27.90;4.15;;;8.70;99.90;;;;;;4998376;28;20389;-67
2021/12/30 01:15:09;;;;;;;27.13;5.00;;;8.60;99.90;;;;;;5023799;28;20116;-67
2021/12/30 01:20:08;;;;;;;37.28;4.88;;;8.60;99.90;;;;;;5020832;28;20487;-67
2021/12/30 01:22:34;;;;;;;29.80;4.70;;;8.60;99.90;;;;;;5013608;28;20045;-67
2021/12/30 01:25:01;;;;;;;27.10;6.53;;;8.60;99.90;;;;;;5026165;28;20037;-68
2021/12/30 01:27:27;;;;;;;32.65;5.32;;;8.50;99.90;;;;;;5026792;28;20261;-67
2021/12/30 01:29:52;;;;;;;26.00;4.67;;;8.50;99.90;;;;;;5007368;28;20548;-68
2021/12/30 01:32:19;;;;;;;29.27;5.20;;;8.50;99.90;;;;;;4985563;28;20044;-68
2021/12/30 01:34:44;;;;;;;29.33;5.53;;;8.50;99.90;;;;;;5021123;28;20084;-68
2021/12/30 01:37:12;;;;;;;27.53;3.87;;;8.40;99.90;;;;;;5020853;28;20119;-67
2021/12/30 01:39:39;;;;;;;28.90;4.80;;;8.40;99.90;;;;;;5018929;28;20179;-67
2021/12/30 01:42:08;;;;;;;19.25;4.55;;;8.40;99.90;;;;;;5020746;28;20652;-68
2021/12/30 01:44:34;;;;;;;24.92;4.78;;;8.30;99.90;;;;;;5014780;28;20048;-68
2021/12/30 01:47:01;;;;;;;;;;;8.30;99.90;;;;;;5009111;28;20051;-68
2021/12/30 01:49:27;;;;;;;21.75;4.07;;;8.30;99.90;;;;;;5017513;28;20509;-67
2021/12/30 01:51:54;;;;;;;16.77;3.72;;;8.20;99.90;;;;;;4997727;28;20038;-68
2021/12/30 01:54:21;;;;;;;22.23;3.97;;;8.10;99.90;;;;;;5015877;28;20056;-68
2021/12/30 01:56:48;;;;;;;29.23;4.45;;;8.10;99.90;;;;;;4993894;28;20121;-68
2021/12/30 01:59:14;;;;;;;32.42;4.50;;;8.00;99.90;;;;;;5020369;28;20033;-68
2021/12/30 02:01:39;;;;;;;19.53;3.93;;;7.90;99.90;;;;;;4996844;28;20728;-68
2021/12/30 02:04:05;;;;;;;35.77;5.50;;;7.90;99.90;;;;;;5004842;28;20049;-68
2021/12/30 02:06:31;;;;;;;29.47;4.00;;;7.80;99.90;;;;;;4998412;28;20049;-68
2021/12/30 02:08:56;;;;;;;24.17;3.77;;;7.80;99.90;;;;;;5012984;28;20092;-69
2021/12/30 02:11:25;;;;;;;39.13;5.27;;;7.80;99.90;;;;;;4998005;28;20112;-67
2021/12/30 02:13:52;;;;;;;25.83;4.95;;;7.80;99.90;;;;;;5021399;28;20034;-70
2021/12/30 02:16:20;;;;;;;23.17;3.92;;;7.70;99.90;;;;;;5013160;28;20099;-70
2021/12/30 02:18:46;;;;;;;29.23;5.00;;;7.70;99.90;;;;;;5014470;28;20057;-70
2021/12/30 02:21:12;;;;;;;34.00;4.93;;;7.80;99.90;;;;;;5021075;28;20065;-69
2021/12/30 02:23:38;;;;;;;28.33;5.80;;;7.80;99.90;;;;;;5013762;28;20069;-67
2021/12/30 02:26:13;;;;;;;21.83;4.40;;;7.70;99.90;;;;;;5020804;28;20470;-68
2021/12/30 02:28:40;;;;;;;35.35;5.55;;;7.70;99.90;;;;;;5018048;28;20136;-68
2021/12/30 02:31:16;;;;;;;32.03;6.55;;;7.70;99.90;;;;;;5015326;28;20038;-67
2021/12/30 02:33:43;;;;;;;36.92;5.10;;;7.80;99.90;;;;;;5006817;28;20034;-68
2021/12/30 02:36:10;;;;;;;33.28;5.22;;;7.70;99.90;;;;;;5005855;28;20088;-70
2021/12/30 02:38:36;;;;;;;;;;;7.80;99.90;;;;;;5008208;28;20106;-68
2021/12/30 02:41:03;;;;;;;26.52;4.45;;;7.80;99.90;;;;;;4985071;28;19917;-68
2021/12/30 02:43:30;;;;;;;28.10;5.32;;;7.70;99.90;;;;;;5018133;28;20429;-70
2021/12/30 02:45:58;;;;;;;33.10;7.05;;;7.80;99.90;;;;;;4999339;28;20402;-70
2021/12/30 02:48:26;;;;;;;42.70;6.03;;;7.80;99.90;;;;;;5013803;28;20086;-67
2021/12/30 02:50:56;;;;;;;31.98;6.15;;;7.80;99.90;;;;;;5003087;28;20053;-67
2021/12/30 02:53:22;;;;;;;35.63;5.55;;;7.80;99.90;;;;;;5020819;28;20026;-67
2021/12/30 02:55:50;;;;;;;23.33;4.88;;;7.90;99.90;;;;;;5018519;28;20074;-67
2021/12/30 02:58:16;;;;;;;28.67;5.28;;;7.90;99.90;;;;;;5017235;28;20120;-67
2021/12/30 03:00:44;;;;;;;34.15;5.32;;;7.90;99.90;;;;;;5006248;28;20114;-69
2021/12/30 03:03:21;;;;;;;37.17;6.43;;;7.90;99.90;;;;;;5017422;28;20519;-69
2021/12/30 03:05:47;;;;;;;43.92;6.20;;;7.90;99.90;;;;;;5022683;28;20041;-69
2021/12/30 03:08:13;;;;;;;30.40;6.00;;;8.00;99.90;;;;;;5013944;28;20389;-69
2021/12/30 03:10:39;;;;;;;47.38;5.63;;;8.00;99.90;;;;;;4996994;28;20133;-67
2021/12/30 03:13:09;;;;;;;39.57;7.03;;;8.00;99.90;;;;;;5023554;28;20135;-67
2021/12/30 03:15:36;;;;;;;30.20;7.25;;;8.00;99.90;;;;;;4997225;28;20044;-67
2021/12/30 03:18:03;;;;;;;29.50;5.88;;;8.00;99.90;;;;;;5000498;28;20523;-69
2021/12/30 03:20:33;;;;;;;28.90;5.35;;;8.10;99.90;;;;;;5001609;28;20514;-70
2021/12/30 03:22:59;;;;;;;30.05;5.88;;;8.20;99.90;;;;;;4999613;28;20247;-68
2021/12/30 03:25:24;;;;;;;35.38;6.25;;;8.20;99.90;;;;;;5018184;28;20074;-68
2021/12/30 03:27:50;;;;;;;31.57;6.03;;;8.30;99.90;;;;;;5019887;28;20087;-67
2021/12/30 03:30:17;;;;;;;30.70;6.30;;;8.20;99.90;;;;;;5016616;28;20047;-68
2021/12/30 03:32:43;;;;;;;43.97;6.75;;;8.30;99.90;;;;;;5020211;28;20060;-68
2021/12/30 03:46:29;;;;;;;37.15;6.18;;;8.50;99.90;;;;;;5030763;22;20052;-69
2021/12/30 03:48:55;;;;;;;34.42;7.05;;;8.50;99.90;;;;;;5020333;28;20159;-69
2021/12/30 03:51:24;;;;;;;37.20;6.50;;;8.60;99.90;;;;;;5013276;28;20045;-69
2021/12/30 03:53:54;;;;;;;43.08;6.57;;;8.50;99.90;;;;;;5022389;28;20311;-68
2021/12/30 03:56:23;;;;;;;54.03;8.32;;;8.50;99.90;;;;;;5025673;28;20037;-69
2021/12/30 03:58:52;;;;;;;41.97;6.32;;;8.50;99.90;;;;;;5004057;28;20060;-69
2021/12/30 04:01:22;;;;;;;48.85;6.97;;;8.60;99.90;;;;;;5022996;28;20355;-69
2021/12/30 04:03:48;;;;;;;39.83;6.88;;;8.60;99.90;;;;;;5006115;28;20041;-70
2021/12/30 04:06:14;;;;;;;;;;;8.70;99.90;;;;;;5024324;28;20249;-70
2021/12/30 04:08:40;;;;;;;33.35;7.28;;;8.70;99.90;;;;;;5008026;28;20007;-70
2021/12/30 04:11:06;;;;;;;60.65;8.60;;;8.80;99.90;;;;;;5025431;28;20038;-69
2021/12/30 04:13:33;;;;;;;45.17;6.70;;;8.80;99.90;;;;;;5015726;28;20032;-69
2021/12/30 04:15:59;;;;;;;44.65;6.35;;;8.80;99.90;;;;;;5018246;28;20050;-69
2021/12/30 04:18:25;;;;;;;50.17;6.87;;;8.90;99.90;;;;;;5008721;28;20057;-69
2021/12/30 04:20:51;;;;;;;43.55;6.95;;;8.90;99.90;;;;;;5020344;28;20042;-70
2021/12/30 04:23:16;;;;;;;43.93;6.77;;;9.00;99.90;;;;;;5019081;28;20049;-70
2021/12/30 04:25:43;;;;;;;43.03;6.27;;;8.90;99.90;;;;;;5021008;28;20029;-70
2021/12/30 04:28:08;;;;;;;43.25;7.03;;;9.00;99.90;;;;;;5021924;28;20547;-70
2021/12/30 04:30:34;;;;;;;44.03;6.13;;;9.00;99.90;;;;;;4991166;28;20120;-69
2021/12/30 04:32:59;;;;;;;49.73;6.63;;;9.10;99.90;;;;;;5001245;28;20036;-70
2021/12/30 04:35:25;;;;;;;56.90;6.73;;;9.10;99.90;;;;;;5006845;28;20106;-70
2021/12/30 04:37:51;;;;;;;46.40;6.60;;;9.20;99.90;;;;;;5024838;28;20041;-70
2021/12/30 04:40:16;;;;;;;44.87;7.03;;;9.20;99.90;;;;;;5003186;28;20053;-69
2021/12/30 04:42:43;;;;;;;50.30;8.03;;;9.30;99.90;;;;;;5019432;28;20034;-70
2021/12/30 04:45:10;;;;;;;63.53;9.82;;;9.30;99.90;;;;;;5008385;28;20419;-70
2021/12/30 04:47:38;;;;;;;48.97;7.82;;;9.40;99.90;;;;;;5022270;28;20036;-69
2021/12/30 04:50:06;;;;;;;52.63;8.70;;;9.40;99.90;;;;;;5020461;28;20387;-69
2021/12/30 04:52:31;;;;;;;59.72;9.90;;;9.50;99.90;;;;;;5024230;28;20490;-69
2021/12/30 04:54:58;;;;;;;49.57;9.47;;;9.50;99.90;;;;;;5009042;28;20038;-69
2021/12/30 04:57:23;;;;;;;57.83;10.18;;;9.60;99.90;;;;;;5023557;28;20045;-70
2021/12/30 04:59:49;;;;;;;55.03;10.33;;;9.50;99.90;;;;;;5007204;28;20409;-70
2021/12/30 05:02:15;;;;;;;64.53;11.80;;;9.60;99.90;;;;;;5021370;28;20037;-69
2021/12/30 05:04:40;;;;;;;62.53;12.37;;;9.60;99.90;;;;;;5007808;28;20077;-70
2021/12/30 05:07:06;;;;;;;56.23;10.80;;;9.70;99.90;;;;;;5020591;28;20040;-70
2021/12/30 05:09:32;;;;;;;60.60;11.33;;;9.70;99.90;;;;;;5025616;28;20042;-70
2021/12/30 05:11:58;;;;;;;65.03;11.43;;;9.70;99.90;;;;;;5024700;28;20218;-69
2021/12/30 05:14:24;;;;;;;52.97;10.10;;;9.80;99.90;;;;;;5018507;28;20041;-70
2021/12/30 05:16:51;;;;;;;48.83;10.10;;;9.90;99.90;;;;;;5009364;28;20069;-70
2021/12/30 05:19:17;;;;;;;55.65;10.45;;;9.90;99.90;;;;;;5024563;28;20039;-69
2021/12/30 05:21:43;;;;;;;43.10;9.03;;;10.00;99.90;;;;;;5007041;28;20045;-69
2021/12/30 05:24:09;;;;;;;43.80;8.47;;;10.00;99.90;;;;;;5019662;28;20115;-69
2021/12/30 05:26:34;;;;;;;36.67;8.57;;;10.00;99.90;;;;;;5022171;28;20034;-69
2021/12/30 05:29:01;;;;;;;45.40;8.40;;;10.00;99.90;;;;;;5023211;28;20124;-69
2021/12/30 05:31:27;;;;;;;33.92;8.10;;;10.10;99.90;;;;;;5022513;28;20045;-69
2021/12/30 05:33:52;;;;;;;37.78;9.77;;;10.10;99.90;;;;;;5005574;28;20057;-69
2021/12/30 05:36:19;;;;;;;38.60;8.93;;;10.10;99.90;;;;;;5020073;28;20033;-69
2021/12/30 05:38:45;;;;;;;44.17;10.25;;;10.10;99.90;;;;;;5021001;28;20042;-69
2021/12/30 05:41:13;;;;;;;37.20;10.02;;;10.20;99.90;;;;;;5020834;28;20457;-69
2021/12/30 05:43:38;;;;;;;42.75;10.02;;;10.20;99.90;;;;;;5020536;28;20038;-69
2021/12/30 05:46:04;;;;;;;44.20;10.60;;;10.20;99.90;;;;;;5024977;28;20094;-70
2021/12/30 05:48:30;;;;;;;26.67;10.13;;;10.30;99.90;;;;;;5011957;28;20034;-69
2021/12/30 05:50:59;;;;;;;48.10;10.70;;;10.30;99.90;;;;;;5021523;28;20064;-69
2021/12/30 05:53:26;;;;;;;50.20;11.85;;;10.30;99.90;;;;;;5003524;28;20065;-69
2021/12/30 05:55:52;;;;;;;37.83;10.65;;;10.30;99.90;;;;;;5029312;28;20045;-69
2021/12/30 05:58:17;;;;;;;36.97;10.00;;;10.40;99.90;;;;;;5023785;28;20060;-69
2021/12/30 06:00:44;;;;;;;40.90;10.40;;;10.40;99.90;;;;;;5027188;28;20041;-69
2021/12/30 06:03:09;;;;;;;42.63;10.20;;;10.50;99.90;;;;;;5019531;28;20401;-69
2021/12/30 06:05:35;;;;;;;47.63;11.87;;;10.50;99.90;;;;;;4995087;28;20107;-69
2021/12/30 06:08:00;;;;;;;48.67;11.50;;;10.50;99.90;;;;;;5004926;28;20041;-69
2021/12/30 06:10:26;;;;;;;60.37;12.73;;;10.60;99.90;;;;;;5011743;28;20398;-69
2021/12/30 06:12:52;;;;;;;63.30;12.77;;;10.60;99.90;;;;;;5010149;28;20037;-69
2021/12/30 06:15:17;;;;;;;61.10;13.43;;;10.60;99.90;;;;;;5026946;28;20509;-69
2021/12/30 06:17:43;;;;;;;49.57;13.17;;;10.70;99.90;;;;;;5022833;28;20037;-69
2021/12/30 06:20:13;;;;;;;57.23;13.07;;;10.70;99.90;;;;;;5012378;28;20049;-69
2021/12/30 06:22:39;;;;;;;49.72;12.63;;;10.70;99.90;;;;;;5026877;28;20057;-69
2021/12/30 06:25:05;;;;;;;58.28;12.57;;;10.70;99.90;;;;;;5025395;28;20050;-69
2021/12/30 06:27:31;;;;;;;54.55;11.43;;;10.70;99.90;;;;;;5026907;28;20043;-70
2021/12/30 06:29:56;;;;;;;53.92;11.45;;;10.70;99.90;;;;;;5017772;28;20050;-69
2021/12/30 06:32:22;;;;;;;42.93;9.07;;;10.70;99.90;;;;;;5018880;28;20116;-69
2021/12/30 06:34:47;;;;;;;48.57;10.87;;;10.70;99.90;;;;;;5028578;28;20424;-69
2021/12/30 06:37:13;;;;;;;41.57;9.03;;;10.70;99.90;;;;;;5026396;28;20033;-69
2021/12/30 06:39:39;;;;;;;26.43;8.20;;;10.70;99.90;;;;;;5026591;28;20036;-69
2021/12/30 06:42:05;;;;;;;30.45;8.35;;;10.70;99.90;;;;;;5019535;28;20243;-70
2021/12/30 06:44:30;;;;;;;29.77;7.97;;;10.70;99.90;;;;;;5027821;28;20091;-69
2021/12/30 06:47:01;;;;;;;27.50;7.60;;;10.70;99.90;;;;;;5011826;28;20074;-69
2021/12/30 06:49:34;;;;;;;21.08;6.20;;;10.70;99.90;;;;;;5022813;28;20041;-69
2021/12/30 06:51:59;;;;;;;17.30;6.18;;;10.70;99.90;;;;;;5028309;28;20053;-69
2021/12/30 06:54:25;;;;;;;16.63;5.87;;;10.70;99.90;;;;;;5025617;28;20608;-69
2021/12/30 06:56:55;;;;;;;18.33;6.57;;;10.70;99.90;;;;;;5007133;28;20045;-69
2021/12/30 06:59:21;;;;;;;17.42;5.93;;;10.70;99.90;;;;;;5020331;28;20083;-69
2021/12/30 07:01:47;;;;;;;17.92;6.20;;;10.70;99.90;;;;;;5024661;28;20116;-70
2021/12/30 07:04:12;;;;;;;15.73;5.63;;;10.70;99.90;;;;;;5015264;28;20129;-69
2021/12/30 07:06:38;;;;;;;15.77;5.73;;;10.70;99.90;;;;;;5010184;28;20123;-70
2021/12/30 07:09:04;;;;;;;17.88;6.43;;;10.70;99.90;;;;;;5025748;28;20040;-69
2021/12/30 07:11:30;;;;;;;15.82;6.40;;;10.70;99.90;;;;;;5028411;28;20033;-69
2021/12/30 07:13:55;;;;;;;14.27;5.20;;;10.70;99.90;;;;;;5027567;28;20029;-70
2021/12/30 07:16:21;;;;;;;14.20;5.67;;;10.70;99.90;;;;;;5026876;28;20044;-69
2021/12/30 07:18:47;;;;;;;15.10;5.50;;;10.80;99.90;;;;;;5024323;28;20533;-69
2021/12/30 07:21:13;;;;;;;14.63;4.77;;;10.80;99.90;;;;;;5005694;28;20421;-70
2021/12/30 07:23:39;;;;;;;12.90;5.50;;;10.80;99.90;;;;;;5026378;28;20136;-69
2021/12/30 07:26:04;;;;;;;13.50;5.80;;;10.90;99.90;;;;;;5024989;28;20112;-69
2021/12/30 07:28:30;;;;;;;13.73;5.53;;;10.90;99.90;;;;;;5008965;28;20038;-70
2021/12/30 07:30:56;;;;;;;14.53;5.43;;;10.90;99.90;;;;;;5009236;28;20172;-69
2021/12/30 07:33:21;;;;;;;14.10;5.40;;;10.90;99.90;;;;;;5023013;28;20079;-69
2021/12/30 07:35:47;;;;;;;11.80;5.00;;;10.90;99.90;;;;;;5026377;28;20037;-69
2021/12/30 07:38:12;;;;;;;10.97;5.00;;;10.90;99.90;;;;;;5026748;28;20037;-69
2021/12/30 07:40:38;;;;;;;15.33;5.60;;;11.00;99.90;;;;;;5007132;28;20636;-69
2021/12/30 07:43:04;;;;;;;9.10;5.47;;;11.00;99.90;;;;;;5024249;28;20033;-69
2021/12/30 07:45:29;;;;;;;13.87;5.27;;;11.00;99.90;;;;;;5021991;28;20044;-69
2021/12/30 07:47:55;;;;;;;13.47;5.57;;;11.00;99.90;;;;;;4994744;28;20080;-69
2021/12/30 07:50:22;;;;;;;16.87;5.93;;;11.00;99.90;;;;;;5006217;28;20042;-69
2021/12/30 07:52:48;;;;;;;18.38;5.95;;;11.00;99.90;;;;;;5015157;28;20068;-69
2021/12/30 07:55:14;;;;;;;7.63;4.60;;;11.10;99.90;;;;;;5007997;28;20067;-70
2021/12/30 07:57:40;;;;;;;10.98;5.13;;;11.10;99.90;;;;;;5011337;28;20494;-70
2021/12/30 08:00:09;;;;;;;12.40;5.60;;;11.10;99.90;;;;;;5015300;28;20042;-70
2021/12/30 08:02:35;;;;;;;11.73;5.28;;;11.10;99.90;;;;;;5021419;28;20056;-70
2021/12/30 08:05:00;;;;;;;12.87;5.30;;;11.10;99.90;;;;;;4991354;28;20459;-71
2021/12/30 08:07:26;;;;;;;11.73;5.47;;;11.10;99.90;;;;;;5008396;28;20418;-71
2021/12/30 08:09:53;;;;;;;11.40;5.03;;;11.10;99.90;;;;;;5024699;28;20071;-71
2021/12/30 08:12:18;;;;;;;14.05;4.65;;;11.10;99.90;;;;;;5020885;28;20043;-71
2021/12/30 08:14:44;;;;;;;10.50;4.13;;;11.10;99.90;;;;;;5009599;28;20037;-71
2021/12/30 08:17:10;;;;;;;13.77;4.70;;;11.10;99.90;;;;;;5026693;28;20032;-71
2021/12/30 08:19:35;;;;;;;13.53;4.50;;;11.20;99.90;;;;;;5027151;28;20043;-71
2021/12/30 08:22:02;;;;;;;14.37;4.37;;;11.20;99.90;;;;;;5017830;28;20041;-72
2021/12/30 08:24:29;;;;;;;13.45;4.13;;;11.20;99.90;;;;;;5005817;28;20411;-71
2021/12/30 08:26:55;;;;;;;10.88;4.50;;;11.30;99.90;;;;;;5025884;28;20046;-67
2021/12/30 08:29:21;;;;;;;12.70;4.10;;;11.20;99.90;;;;;;5019979;28;20040;-67
2021/12/30 08:31:47;;;;;;;11.82;4.10;;;11.20;99.90;;;;;;5026908;28;20038;-67
2021/12/30 08:34:13;;;;;;;17.27;4.45;;;11.20;99.90;;;;;;5028329;28;20033;-66
2021/12/30 08:36:39;;;;;;;12.73;4.27;;;11.20;99.90;;;;;;5007398;28;20882;-67
2021/12/30 08:39:05;;;;;;;15.90;4.18;;;11.20;99.90;;;;;;5006323;28;20029;-71
2021/12/30 08:41:30;;;;;;;8.48;3.63;;;11.20;99.90;;;;;;5008558;28;20052;-72
2021/12/30 08:43:56;;;;;;;16.90;3.77;;;11.20;99.90;;;;;;5009258;28;20077;-74
2021/12/30 08:46:22;;;;;;;20.17;3.93;;;11.20;99.90;;;;;;5026811;28;20033;-69
2021/12/30 08:48:47;;;;;;;17.10;4.63;;;11.20;99.90;;;;;;5005327;28;20342;-69
2021/12/30 08:51:13;;;;;;;12.83;3.30;;;11.20;99.90;;;;;;5008225;28;20316;-70
2021/12/30 08:53:40;;;;;;;20.97;5.03;;;11.30;99.90;;;;;;5025108;28;20129;-68
2021/12/30 08:56:11;;;;;;;18.52;3.70;;;11.20;99.90;;;;;;5024556;28;20072;-73
2021/12/30 08:58:38;;;;;;;14.30;3.60;;;11.30;99.90;;;;;;5002937;28;20077;-74
2021/12/30 09:01:03;;;;;;;19.90;3.97;;;11.30;99.90;;;;;;5009059;28;20049;-68
2021/12/30 09:03:29;;;;;;;17.43;3.10;;;11.30;99.90;;;;;;5010156;28;20038;-67
2021/12/30 09:05:55;;;;;;;13.20;3.30;;;11.30;99.90;;;;;;5001616;28;20057;-67
2021/12/30 09:08:21;;;;;;;15.70;4.07;;;11.30;99.90;;;;;;5005866;28;20046;-68
2021/12/30 09:10:49;;;;;;;13.57;3.43;;;11.40;99.90;;;;;;5023512;28;20135;-67
2021/12/30 09:13:16;;;;;;;20.85;3.25;;;11.40;99.90;;;;;;5004011;28;20045;-67
2021/12/30 09:15:42;;;;;;;15.48;2.97;;;11.40;99.90;;;;;;5022020;28;20037;-67
2021/12/30 09:18:08;;;;;;;12.82;2.65;;;11.50;99.90;;;;;;5022852;28;20508;-67
2021/12/30 09:20:35;;;;;;;9.95;3.10;;;11.50;99.90;;;;;;4995543;28;20099;-67
2021/12/30 09:23:03;;;;;;;11.50;2.88;;;11.50;99.90;;;;;;5000733;28;20119;-68
2021/12/30 09:25:30;;;;;;;15.85;3.17;;;11.50;99.90;;;;;;5000598;28;20049;-67
2021/12/30 09:27:56;;;;;;;;;;;11.60;99.90;;;;;;5015371;28;20091;-68
2021/12/30 09:30:23;;;;;;;14.63;3.13;;;11.60;99.90;;;;;;5017830;28;19933;-66
2021/12/30 09:32:50;;;;;;;19.20;3.20;;;11.60;99.90;;;;;;5019865;28;20325;-66
2021/12/30 09:35:16;;;;;;;17.65;3.33;;;11.60;99.90;;;;;;5030527;22;20094;-73
2021/12/30 09:37:43;;;;;;;15.07;4.00;;;11.60;99.90;;;;;;5012084;28;20529;-74
2021/12/30 09:40:13;;;;;;;20.33;3.33;;;11.60;99.90;;;;;;5002507;28;20046;-73
2021/12/30 09:42:45;;;;;;;21.88;3.10;;;11.60;99.90;;;;;;4973642;28;20045;-72
2021/12/30 09:45:11;;;;;;;14.55;3.00;;;11.60;99.90;;;;;;4995078;28;20037;-72
2021/12/30 09:47:43;;;;;;;19.73;3.50;;;11.70;99.90;;;;;;4987160;28;20603;-72
2021/12/30 09:50:09;;;;;;;17.60;3.08;;;11.70;99.90;;;;;;4992628;28;20057;-74
2021/12/30 09:52:34;;;;;;;12.07;2.65;;;11.70;99.90;;;;;;4985520;28;20038;-73
2021/12/30 09:55:00;;;;;;;15.80;2.63;;;11.70;99.90;;;;;;5007278;28;20076;-73
2021/12/30 09:57:25;;;;;;;22.57;3.07;;;11.70;99.90;;;;;;4984186;28;20113;-72
2021/12/30 09:59:51;;;;;;;11.50;2.57;;;11.70;99.90;;;;;;4998291;28;20038;-74
2021/12/30 10:02:18;;;;;;;15.93;3.07;;;11.70;99.90;;;;;;4987401;28;20319;-72
2021/12/30 10:04:43;;;;;;;17.30;2.92;;;11.80;99.90;;;;;;4984229;28;20038;-71
2021/12/30 10:07:20;;;;;;;14.53;3.17;;;11.80;99.90;;;;;;4968739;28;20052;-73
2021/12/30 10:09:50;;;;;;;;;;;11.80;99.90;;;;;;4993949;28;20153;-72
2021/12/30 10:12:33;;;;;;;14.30;3.83;;;11.80;99.90;;;;;;4987574;28;20401;-72
2021/12/30 10:14:58;;;;;;;14.30;2.47;;;11.80;99.90;;;;;;4996156;28;20453;-72
2021/12/30 10:17:27;;;;;;;17.00;2.73;;;11.90;99.90;;;;;;4997026;28;20748;-72
2021/12/30 10:19:54;;;;;;;17.58;3.30;;;11.80;99.90;;;;;;4985732;28;20052;-72
2021/12/30 10:22:23;;;;;;;21.58;3.83;;;11.90;99.90;;;;;;4980798;28;20073;-73
2021/12/30 10:24:49;;;;;;;11.95;3.00;;;11.90;99.90;;;;;;4987563;28;20068;-72
2021/12/30 10:27:28;;;;;;;16.08;2.95;;;11.90;99.90;;;;;;4995436;28;20152;-73
2021/12/30 10:29:55;;;;;;;21.45;3.80;;;11.90;99.90;;;;;;5001738;28;20045;-72
2021/12/30 10:32:29;;;;;;;30.83;3.53;;;11.90;99.90;;;;;;5007222;28;20053;-72
2021/12/30 10:35:14;;;;;;;21.33;3.88;;;11.80;99.90;;;;;;4997339;28;20057;-72
2021/12/30 10:37:43;;;;;;;20.70;3.25;;;11.90;99.90;;;;;;5011950;28;20041;-72
2021/12/30 10:40:32;;;;;;;25.60;4.03;;;11.80;99.90;;;;;;5006656;28;20057;-72
2021/12/30 10:43:32;;;;;;;26.20;3.78;;;11.90;99.90;;;;;;5004048;28;20125;-70
2021/12/30 10:46:19;;;;;;;18.35;3.65;;;11.90;99.90;;;;;;4972011;28;20045;-71
2021/12/30 10:49:08;;;;;;;24.95;4.90;;;11.90;99.90;;;;;;4988272;28;20050;-70
2021/12/30 10:51:49;;;;;;;24.55;4.85;;;11.90;99.90;;;;;;4991544;28;20053;-70
2021/12/30 10:54:26;;;;;;;26.02;4.18;;;11.90;99.90;;;;;;5008806;28;20542;-69
2021/12/30 10:57:00;;;;;;;24.73;5.07;;;12.00;99.90;;;;;;4998942;28;20045;-70
2021/12/30 10:59:31;;;;;;;31.70;5.20;;;12.00;99.90;;;;;;4990161;28;20046;-70
2021/12/30 11:02:08;;;;;;;30.67;5.18;;;12.00;99.90;;;;;;4997497;28;20061;-70
2021/12/30 11:04:41;;;;;;;31.13;5.15;;;12.00;99.90;;;;;;4997894;28;20045;-69
2021/12/30 11:07:09;;;;;;;34.05;5.57;;;11.90;99.90;;;;;;5001593;28;20038;-70
2021/12/30 11:09:41;;;;;;;29.75;5.65;;;12.00;99.90;;;;;;5003883;28;20119;-69
2021/12/30 11:12:07;;;;;;;37.42;5.38;;;12.00;99.90;;;;;;4994351;28;20045;-69
2021/12/30 11:14:36;;;;;;;26.55;5.65;;;12.10;99.90;;;;;;5007629;28;20112;-69
2021/12/30 11:17:05;;;;;;;32.83;5.38;;;12.10;99.90;;;;;;4995085;28;20451;-69
2021/12/30 11:19:34;;;;;;;24.63;4.45;;;12.00;99.90;;;;;;4984929;28;20046;-70
2021/12/30 11:22:01;;;;;;;23.70;6.07;;;12.00;99.90;;;;;;4996639;28;20050;-71
2021/12/30 11:24:29;;;;;;;24.88;4.47;;;12.00;99.90;;;;;;4985956;28;20038;-70
2021/12/30 11:26:56;;;;;;;30.38;4.82;;;12.00;99.90;;;;;;5002219;28;20034;-69
2021/12/30 11:29:23;;;;;;;29.30;4.40;;;12.00;99.90;;;;;;5004543;28;20030;-69
2021/12/30 11:31:50;;;;;;;23.45;4.50;;;12.00;99.90;;;;;;4993067;28;20169;-70
2021/12/30 11:34:16;;;;;;;33.65;5.43;;;12.00;99.90;;;;;;4992547;28;20083;-69
2021/12/30 11:36:43;;;;;;;25.17;4.57;;;12.00;99.90;;;;;;5001058;28;20119;-70
2021/12/30 11:39:15;;;;;;;33.17;4.75;;;12.00;99.90;;;;;;5001214;28;20096;-69
2021/12/30 11:41:47;;;;;;;27.10;5.15;;;12.00;99.90;;;;;;4981765;28;20549;-70
2021/12/30 11:44:43;;;;;;;23.48;4.25;;;12.10;99.90;;;;;;5003241;28;20399;-69
2021/12/30 11:47:31;;;;;;;30.77;4.68;;;12.10;99.90;;;;;;4983233;28;20176;-71
2021/12/30 11:50:08;;;;;;;24.25;4.00;;;12.10;99.90;;;;;;4974580;28;20062;-70
2021/12/30 11:53:23;;;;;;;29.23;4.43;;;12.10;99.90;;;;;;4983411;28;20218;-70
2021/12/30 11:56:09;;;;;;;31.10;4.47;;;12.10;99.90;;;;;;4974388;28;20046;-69
2021/12/30 11:58:42;;;;;;;29.35;5.50;;;12.10;99.90;;;;;;4987076;28;20033;-70
2021/12/30 12:01:10;;;;;;;35.10;3.67;;;12.10;99.90;;;;;;4982476;28;20128;-69
2021/12/30 12:03:53;;;;;;;23.55;4.60;;;12.10;99.90;;;;;;5007823;28;20396;-70
2021/12/30 12:06:27;;;;;;;29.90;4.60;;;12.10;99.90;;;;;;4985559;28;20259;-70
2021/12/30 12:09:19;;;;;;;27.13;5.45;;;12.10;99.90;;;;;;4980452;28;20138;-70
2021/12/30 12:11:46;;;;;;;25.65;4.30;;;12.10;99.90;;;;;;4976833;28;20123;-69
2021/12/30 12:14:18;;;;;;;29.25;4.15;;;12.10;99.90;;;;;;4981487;28;20045;-69
2021/12/30 12:16:51;;;;;;;25.35;4.85;;;12.10;99.90;;;;;;4980690;28;20049;-71
2021/12/30 12:19:30;;;;;;;36.50;4.22;;;12.10;99.90;;;;;;4986024;28;20038;-70
2021/12/30 12:21:56;;;;;;;23.58;4.72;;;12.20;99.90;;;;;;4985756;28;20532;-70
2021/12/30 12:24:21;;;;;;;30.13;5.07;;;12.20;99.90;;;;;;5002072;28;20132;-70
2021/12/30 12:26:55;;;;;;;23.17;3.83;;;12.20;99.90;;;;;;4993729;28;20049;-70
2021/12/30 12:29:44;;;;;;;21.73;3.58;;;12.20;99.90;;;;;;5002822;28;20038;-69
2021/12/30 12:32:14;;;;;;;22.77;4.25;;;12.20;99.90;;;;;;5001705;28;20046;-70
2021/12/30 12:34:39;;;;;;;23.58;4.13;;;12.20;99.90;;;;;;4985364;28;20042;-69
2021/12/30 12:37:39;;;;;;;23.27;3.53;;;12.20;99.90;;;;;;5001015;28;20064;-70
2021/12/30 12:40:22;;;;;;;26.00;4.00;;;12.30;99.90;;;;;;4980635;28;20085;-70
2021/12/30 12:42:51;;;;;;;23.25;4.30;;;12.20;99.90;;;;;;5009485;28;20289;-69
2021/12/30 12:45:19;;;;;;;25.60;4.60;;;12.20;99.90;;;;;;5006151;28;20091;-72
2021/12/30 12:47:46;;;;;;;28.90;4.20;;;12.20;99.90;;;;;;5002082;28;20212;-69
2021/12/30 12:50:13;;;;;;;21.10;3.75;;;12.20;99.90;;;;;;4990648;28;20056;-71
2021/12/30 12:52:47;;;;;;;27.70;4.40;;;12.20;99.90;;;;;;4983413;28;20088;-71
2021/12/30 12:55:22;;;;;;;20.70;4.00;;;12.20;99.90;;;;;;4977973;28;20038;-71
2021/12/30 12:57:48;;;;;;;18.90;4.28;;;12.20;99.90;;;;;;4981047;28;20046;-71
2021/12/30 13:00:15;;;;;;;20.27;4.78;;;12.20;99.90;;;;;;4984195;28;20495;-71